Time;durP1;ratioP1;P1;durP2;ratioP2;P2;SDS_P1;SDS_P2;PMS_P1;PMS_P2;Temp;Humidity;BMP_temperature;BMP_pressure;BME280_temperature;BME280_humidity;BME280_pressure;Samples;Min_cycle;Max_cycle;Signal;HPM_P1;HPM_P2
2023/03/10 00:01:32;;;;;;;22.52;13.10;;;;;;;;;;5053903;28;20052;-73
2023/03/10 00:04:00;;;;;;;20.42;10.90;;;2.70;99.90;;;;;;5052682;28;20036;-74
2023/03/10 00:06:27;;;;;;;21.98;12.35;;;;;;;;;;5050426;28;20048;-72
2023/03/10 00:08:53;;;;;;;20.20;11.50;;;2.80;99.90;;;;;;5033843;28;20045;-73
2023/03/10 00:11:19;;;;;;;20.50;12.07;;;;;;;;;;5049833;28;20037;-73
2023/03/10 00:13:45;;;;;;;21.60;12.18;;;2.70;99.90;;;;;;5066869;28;20129;-73
2023/03/10 00:16:19;;;;;;;21.88;11.77;;;2.50;99.90;;;;;;5050469;28;20123;-73
2023/03/10 00:18:46;;;;;;;20.83;11.95;;;;;;;;;;5066896;28;20083;-73
2023/03/10 00:21:23;;;;;;;21.30;12.13;;;2.60;99.90;;;;;;5066756;28;20045;-73
2023/03/10 00:23:49;;;;;;;20.50;10.77;;;;;;;;;;5050601;28;20420;-72
2023/03/10 00:26:17;;;;;;;15.60;10.15;;;2.60;99.90;;;;;;5066489;28;20041;-72
2023/03/10 00:28:43;;;;;;;19.20;11.00;;;;;;;;;;5050175;28;20040;-72
2023/03/10 00:31:14;;;;;;;19.35;12.18;;;;;;;;;;5033498;28;20037;-72
2023/03/10 00:33:40;;;;;;;19.35;10.93;;;;;;;;;;5033672;28;20040;-73
2023/03/10 00:36:06;;;;;;;17.45;11.23;;;;;;;;;;5033766;28;20045;-73
2023/03/10 00:38:32;;;;;;;17.33;10.35;;;2.70;99.90;;;;;;5051273;28;20037;-72
2023/03/10 00:40:59;;;;;;;16.98;10.60;;;2.60;99.90;;;;;;5049950;28;20444;-72
2023/03/10 00:43:26;;;;;;;16.67;9.88;;;2.70;99.90;;;;;;5049940;28;20044;-72
2023/03/10 00:45:52;;;;;;;17.67;11.20;;;;;;;;;;5050233;28;20036;-72
2023/03/10 00:48:18;;;;;;;18.90;10.20;;;;;;;;;;5066686;28;20048;-74
2023/03/10 00:50:44;;;;;;;18.20;11.15;;;;;;;;;;5066758;28;20041;-72
2023/03/10 00:53:10;;;;;;;18.40;10.70;;;;;;;;;;5033159;28;20099;-72
2023/03/10 00:55:36;;;;;;;19.77;12.05;;;2.80;99.90;;;;;;5066966;28;20045;-72
2023/03/10 00:58:02;;;;;;;19.35;11.80;;;;;;;;;;5049862;28;20037;-72
2023/03/10 01:00:27;;;;;;;21.38;11.90;;;2.60;99.90;;;;;;5033322;28;20041;-72
2023/03/10 01:02:53;;;;;;;19.63;11.82;;;;;;;;;;5053400;28;20103;-72
2023/03/10 01:05:19;;;;;;;18.33;11.30;;;;;;;;;;5070444;28;20045;-73
2023/03/10 01:07:45;;;;;;;19.83;12.00;;;;;;;;;;5070549;28;20040;-73
2023/03/10 01:10:12;;;;;;;24.38;14.13;;;;;;;;;;5037011;28;20048;-72
2023/03/10 01:12:38;;;;;;;19.67;12.23;;;;;;;;;;5036999;28;20056;-72
2023/03/10 01:15:04;;;;;;;19.85;12.73;;;2.80;99.90;;;;;;5070294;28;20509;-73
2023/03/10 01:17:30;;;;;;;21.63;13.38;;;2.60;99.90;;;;;;5037012;28;20090;-72
2023/03/10 01:19:56;;;;;;;24.38;13.55;;;;;;;;;;5053632;28;20214;-72
2023/03/10 01:22:22;;;;;;;20.38;12.43;;;;;;;;;;5036634;28;20141;-73
2023/03/10 01:24:48;;;;;;;20.67;13.25;;;;;;;;;;5069996;28;20052;-75
2023/03/10 01:27:14;;;;;;;21.98;13.38;;;;;;;;;;5036635;28;20163;-74
2023/03/10 01:29:40;;;;;;;27.30;15.07;;;;;;;;;;5070123;28;20040;-73
2023/03/10 01:32:07;;;;;;;24.23;14.63;;;;;;;;;;5036493;28;20048;-74
2023/03/10 01:34:33;;;;;;;23.80;15.05;;;;;;;;;;5036754;28;20049;-73
2023/03/10 01:36:59;;;;;;;26.20;15.85;;;;;;;;;;5069755;28;20531;-73
2023/03/10 01:39:25;;;;;;;26.42;15.52;;;;;;;;;;5069925;28;20098;-74
2023/03/10 01:41:51;;;;;;;25.77;14.85;;;;;;;;;;5069599;28;20132;-74
2023/03/10 01:44:19;;;;;;;26.05;16.30;;;2.70;99.90;;;;;;5069745;28;20139;-72
2023/03/10 01:46:50;;;;;;;26.00;15.27;;;2.80;99.90;;;;;;5036247;28;20045;-73
2023/03/10 01:49:24;;;;;;;28.63;16.88;;;;;;;;;;5053123;28;20381;-72
2023/03/10 01:51:56;;;;;;;28.23;17.08;;;;;;;;;;5036287;28;20404;-73
2023/03/10 01:54:24;;;;;;;30.30;17.33;;;;;;;;;;5069614;28;20040;-74
2023/03/10 01:56:51;;;;;;;25.80;15.32;;;2.70;99.90;;;;;;5069430;28;20090;-72
2023/03/10 01:59:18;;;;;;;25.98;15.27;;;;;;;;;;5052710;28;20036;-73
2023/03/10 02:01:44;;;;;;;23.42;14.32;;;2.80;99.90;;;;;;5069240;28;20041;-72
2023/03/10 02:04:22;;;;;;;26.30;16.23;;;2.80;99.90;;;;;;5052917;28;20451;-74
2023/03/10 02:06:50;;;;;;;24.08;14.40;;;2.90;99.90;;;;;;5052388;28;20041;-73
2023/03/10 02:09:17;;;;;;;26.80;14.65;;;;;;;;;;5052159;28;20519;-73
2023/03/10 02:11:44;;;;;;;25.27;14.30;;;2.80;99.90;;;;;;5072623;28;20044;-73
2023/03/10 02:14:10;;;;;;;21.95;13.68;;;;;;;;;;5053379;28;20408;-73
2023/03/10 02:16:36;;;;;;;17.85;11.60;;;2.90;99.90;;;;;;5072315;28;20040;-72
2023/03/10 02:19:05;;;;;;;21.67;12.20;;;3.00;99.90;;;;;;5057596;28;20043;-73
2023/03/10 02:21:50;;;;;;;18.58;11.55;;;2.60;99.90;;;;;;5056394;28;20037;-73
2023/03/10 02:24:45;;;;;;;18.95;12.15;;;2.90;99.90;;;;;;5052444;28;20036;-73
2023/03/10 02:27:15;;;;;;;19.90;11.45;;;;;;;;;;5051917;28;20049;-73
2023/03/10 02:29:47;;;;;;;18.45;11.68;;;2.80;99.90;;;;;;5035411;28;20048;-73
2023/03/10 02:32:14;;;;;;;17.52;10.45;;;2.60;99.90;;;;;;5052032;28;20120;-73
2023/03/10 02:34:40;;;;;;;16.83;10.77;;;2.60;99.90;;;;;;5035414;28;20037;-73
2023/03/10 02:37:06;;;;;;;18.75;11.27;;;;;;;;;;5059164;28;20075;-72
2023/03/10 02:39:31;;;;;;;18.52;11.20;;;;;;;;;;5089028;28;20093;-73
2023/03/10 02:41:57;;;;;;;18.17;11.50;;;;;;;;;;5088782;28;20571;-72
2023/03/10 02:44:24;;;;;;;18.80;11.75;;;2.60;99.90;;;;;;5089144;28;20058;-72
2023/03/10 02:46:50;;;;;;;21.60;13.15;;;;;;;;;;5071811;28;20044;-73
2023/03/10 02:49:20;;;;;;;20.05;11.73;;;2.80;99.90;;;;;;5088601;28;20156;-72
2023/03/10 02:51:47;;;;;;;19.38;11.48;;;;;;;;;;5071704;28;20540;-72
2023/03/10 02:54:13;;;;;;;19.38;11.82;;;2.60;99.90;;;;;;5088489;28;20037;-72
2023/03/10 02:56:41;;;;;;;20.02;12.20;;;2.50;99.90;;;;;;5071624;28;20044;-72
2023/03/10 02:59:08;;;;;;;20.98;12.85;;;2.60;99.90;;;;;;5088521;28;20072;-73
2023/03/10 03:01:33;;;;;;;18.75;11.10;;;2.50;99.90;;;;;;5071847;28;20479;-72
2023/03/10 03:04:00;;;;;;;20.02;11.48;;;;;;;;;;5072736;28;20079;-73
2023/03/10 03:06:26;;;;;;;20.23;12.27;;;;;;;;;;5088334;28;20044;-73
2023/03/10 03:08:52;;;;;;;20.05;12.32;;;2.50;99.90;;;;;;5054629;28;20082;-72
2023/03/10 03:11:18;;;;;;;20.85;11.98;;;;;;;;;;5071147;28;20028;-72
2023/03/10 03:13:44;;;;;;;23.52;13.55;;;;;;;;;;5088103;28;20128;-72
2023/03/10 03:16:10;;;;;;;24.83;14.18;;;2.30;99.90;;;;;;5054655;28;20135;-73
2023/03/10 03:18:36;;;;;;;23.58;12.50;;;;;;;;;;5054568;28;20086;-72
2023/03/10 03:21:10;;;;;;;23.75;13.15;;;;;;;;;;5087827;28;20101;-72
2023/03/10 03:23:36;;;;;;;21.90;11.63;;;;;;;;;;5072058;28;20514;-72
2023/03/10 03:26:03;;;;;;;20.75;11.80;;;;;;;;;;5087784;28;20044;-72
2023/03/10 03:28:29;;;;;;;18.98;11.25;;;2.40;99.90;;;;;;5054333;28;20393;-72
2023/03/10 03:30:54;;;;;;;22.45;13.40;;;2.40;99.90;;;;;;5071237;28;20110;-72
2023/03/10 03:33:20;;;;;;;19.92;12.18;;;;;;;;;;5070809;28;20499;-73
2023/03/10 03:35:46;;;;;;;22.02;12.45;;;;;;;;;;5087636;28;20044;-74
2023/03/10 03:38:13;;;;;;;20.80;12.10;;;;;;;;;;5087618;28;20044;-72
2023/03/10 03:40:39;;;;;;;21.20;12.02;;;;;;;;;;5087714;28;20040;-72
2023/03/10 03:43:05;;;;;;;21.50;11.95;;;;;;;;;;5087363;28;20044;-71
2023/03/10 03:45:32;;;;;;;23.63;13.23;;;2.40;99.90;;;;;;5053991;28;20109;-71
2023/03/10 03:47:58;;;;;;;22.35;12.27;;;2.60;99.90;;;;;;5053898;28;20090;-72
2023/03/10 03:50:24;;;;;;;26.20;14.32;;;2.10;99.90;;;;;;5070405;28;20036;-72
2023/03/10 03:52:50;;;;;;;27.95;14.02;;;;;;;;;;5070747;28;20036;-72
2023/03/10 03:55:17;;;;;;;21.13;12.32;;;;;;;;;;5053891;28;20076;-72
2023/03/10 03:57:44;;;;;;;25.98;14.15;;;;;;;;;;5087464;28;20514;-71
2023/03/10 04:00:12;;;;;;;25.45;14.05;;;;;;;;;;5087190;28;20044;-72
2023/03/10 04:02:38;;;;;;;25.77;14.30;;;2.40;99.90;;;;;;5053515;28;20040;-73
2023/03/10 04:05:04;;;;;;;27.10;13.90;;;2.30;99.90;;;;;;5070461;28;20084;-72
2023/03/10 04:07:30;;;;;;;27.13;14.73;;;;;;;;;;5070291;28;20078;-73
2023/03/10 04:09:56;;;;;;;25.63;14.88;;;;;;;;;;5087139;28;20047;-73
2023/03/10 04:12:24;;;;;;;27.65;15.65;;;;;;;;;;5087242;28;20067;-72
2023/03/10 04:14:50;;;;;;;24.38;14.25;;;;;;;;;;5087211;28;20123;-72
2023/03/10 04:17:16;;;;;;;31.95;16.30;;;;;;;;;;5087374;28;20066;-72
2023/03/10 04:19:42;;;;;;;28.50;16.63;;;;;;;;;;5053403;28;20059;-72
2023/03/10 04:22:08;;;;;;;27.10;15.50;;;;;;;;;;5087177;28;20515;-71
2023/03/10 04:24:37;;;;;;;33.97;17.55;;;;;;;;;;5087370;28;20037;-72
2023/03/10 04:27:03;;;;;;;28.48;16.35;;;;;;;;;;5086859;28;20036;-72
2023/03/10 04:29:29;;;;;;;29.33;16.52;;;;;;;;;;5053388;28;20032;-72
2023/03/10 04:31:55;;;;;;;27.33;15.18;;;;;;;;;;5086710;28;20385;-72
2023/03/10 04:34:20;;;;;;;29.67;15.48;;;2.30;99.90;;;;;;5086799;28;20044;-72
2023/03/10 04:36:46;;;;;;;29.63;16.77;;;2.30;99.90;;;;;;5071802;28;20490;-72
2023/03/10 04:39:12;;;;;;;29.80;16.75;;;;;;;;;;5057566;28;20050;-72
2023/03/10 04:41:38;;;;;;;28.25;16.20;;;;;;;;;;5057224;28;20044;-73
2023/03/10 04:44:04;;;;;;;28.15;15.95;;;;;;;;;;5090942;28;20089;-73
2023/03/10 04:46:30;;;;;;;29.38;17.17;;;;;;;;;;5090942;28;20504;-71
2023/03/10 04:48:56;;;;;;;25.98;15.48;;;;;;;;;;5091028;28;20135;-71
2023/03/10 04:51:22;;;;;;;26.27;16.20;;;;;;;;;;5090781;28;20232;-74
2023/03/10 04:53:49;;;;;;;28.23;15.68;;;;;;;;;;5091022;28;20563;-72
2023/03/10 04:56:15;;;;;;;32.30;18.23;;;2.30;99.90;;;;;;5090848;28;20041;-71
2023/03/10 04:58:41;;;;;;;37.78;18.00;;;;;;;;;;5073921;28;20113;-73
2023/03/10 05:01:10;;;;;;;31.83;17.38;;;;;;;;;;5056864;28;20159;-71
2023/03/10 05:03:37;;;;;;;33.03;16.45;;;;;;;;;;5090957;28;20511;-71
2023/03/10 05:06:03;;;;;;;30.80;17.33;;;;;;;;;;5090954;28;20097;-71
2023/03/10 05:08:29;;;;;;;29.13;16.67;;;;;;;;;;5090838;28;20037;-72
2023/03/10 05:10:55;;;;;;;31.27;17.70;;;;;;;;;;5090554;28;20059;-72
2023/03/10 05:13:21;;;;;;;32.83;17.88;;;;;;;;;;5056752;28;20405;-73
2023/03/10 05:15:47;;;;;;;33.55;17.90;;;;;;;;;;5090499;28;20043;-71
2023/03/10 05:18:14;;;;;;;32.58;17.08;;;;;;;;;;5090286;28;20048;-71
2023/03/10 05:20:40;;;;;;;31.38;17.25;;;;;;;;;;5090405;28;20037;-72
2023/03/10 05:23:06;;;;;;;33.88;18.20;;;;;;;;;;5090405;28;20036;-73
2023/03/10 05:25:32;;;;;;;28.35;15.57;;;;;;;;;;5090155;28;20055;-71
2023/03/10 05:27:58;;;;;;;34.85;19.17;;;;;;;;;;5090677;28;20040;-71
2023/03/10 05:30:24;;;;;;;38.17;19.73;;;;;;;;;;5090077;28;20094;-71
2023/03/10 05:32:50;;;;;;;38.17;20.45;;;;;;;;;;5056326;28;20048;-71
2023/03/10 05:35:15;;;;;;;37.13;20.67;;;2.30;99.90;;;;;;5090064;28;20037;-71
2023/03/10 05:37:43;;;;;;;38.38;19.58;;;;;;;;;;5073280;28;20040;-71
2023/03/10 05:40:14;;;;;;;44.53;22.02;;;2.30;99.90;;;;;;5089885;28;20106;-71
2023/03/10 05:42:40;;;;;;;39.08;19.55;;;;;;;;;;5072914;28;20040;-71
2023/03/10 05:45:07;;;;;;;46.00;22.23;;;;;;;;;;5089854;28;20110;-71
2023/03/10 05:47:33;;;;;;;38.60;21.30;;;;;;;;;;5089417;28;20055;-71
2023/03/10 05:49:59;;;;;;;41.78;21.48;;;2.50;99.90;;;;;;5071200;28;20032;-71
2023/03/10 05:52:26;;;;;;;44.88;22.20;;;2.20;99.90;;;;;;5052679;28;20420;-72
2023/03/10 05:54:52;;;;;;;41.75;21.35;;;2.30;99.90;;;;;;5052857;28;20037;-71
2023/03/10 05:57:18;;;;;;;45.72;22.65;;;;;;;;;;5053058;28;20033;-72
2023/03/10 05:59:44;;;;;;;42.97;22.40;;;;;;;;;;5036310;28;20135;-71
2023/03/10 06:02:10;;;;;;;46.17;23.10;;;;;;;;;;5069414;28;20059;-72
2023/03/10 06:04:36;;;;;;;51.22;25.08;;;;;;;;;;5069160;28;20075;-72
2023/03/10 06:07:02;;;;;;;50.88;25.17;;;;;;;;;;5069203;28;20037;-72
2023/03/10 06:09:29;;;;;;;54.22;26.90;;;;;;;;;;5068833;28;20041;-71
2023/03/10 06:11:55;;;;;;;52.70;25.65;;;;;;;;;;5068608;28;20042;-72
2023/03/10 06:14:22;;;;;;;53.67;26.08;;;;;;;;;;5069101;28;20073;-72
2023/03/10 06:16:50;;;;;;;53.03;25.42;;;2.10;99.90;;;;;;5069060;28;20527;-72
2023/03/10 06:19:20;;;;;;;46.03;23.40;;;2.30;99.90;;;;;;5052357;28;20076;-70
2023/03/10 06:21:46;;;;;;;47.55;24.10;;;;;;;;;;5052046;28;20155;-72
2023/03/10 06:24:12;;;;;;;39.00;20.77;;;;;;;;;;5069100;28;20045;-72
2023/03/10 06:26:39;;;;;;;41.00;21.75;;;;;;;;;;5068399;28;20069;-72
2023/03/10 06:29:05;;;;;;;44.38;22.90;;;;;;;;;;5069196;28;20044;-72
2023/03/10 06:31:32;;;;;;;43.85;21.88;;;;;;;;;;5068261;28;20044;-72
2023/03/10 06:33:58;;;;;;;44.83;21.50;;;;;;;;;;5068472;28;20044;-72
2023/03/10 06:36:25;;;;;;;43.33;20.52;;;2.30;99.90;;;;;;5068850;28;20041;-72
2023/03/10 06:38:51;;;;;;;42.95;20.77;;;;;;;;;;5035324;28;20037;-72
2023/03/10 06:41:18;;;;;;;39.05;20.08;;;;;;;;;;5068283;28;20043;-71
2023/03/10 06:43:44;;;;;;;35.70;19.23;;;;;;;;;;5068757;28;20052;-72
2023/03/10 06:46:10;;;;;;;37.83;18.98;;;;;;;;;;5068553;28;20110;-72
2023/03/10 06:48:37;;;;;;;39.30;21.40;;;;;;;;;;5035018;28;20041;-72
2023/03/10 06:51:12;;;;;;;32.15;17.30;;;2.20;99.90;;;;;;5068100;28;20049;-71
2023/03/10 06:53:38;;;;;;;34.63;17.38;;;;;;;;;;5051723;28;20047;-72
2023/03/10 06:56:05;;;;;;;32.70;17.63;;;2.10;99.90;;;;;;5068011;28;20049;-72
2023/03/10 06:58:32;;;;;;;31.77;16.55;;;;;;;;;;5050409;28;20090;-71
2023/03/10 07:00:58;;;;;;;30.20;16.42;;;;;;;;;;5035037;28;20342;-71
2023/03/10 07:03:25;;;;;;;30.67;16.35;;;;;;;;;;5051413;28;20384;-71
2023/03/10 07:06:00;;;;;;;29.10;16.08;;;;;;;;;;5068509;28;20555;-71
2023/03/10 07:08:26;;;;;;;31.85;16.85;;;;;;;;;;5067176;28;20044;-71
2023/03/10 07:10:52;;;;;;;32.15;17.85;;;;;;;;;;5062562;28;20586;-69
2023/03/10 07:13:18;;;;;;;32.60;16.80;;;;;;;;;;5047098;28;20043;-70
2023/03/10 07:15:45;;;;;;;31.63;17.30;;;;;;;;;;5064208;28;20040;-70
2023/03/10 07:18:11;;;;;;;33.42;16.15;;;;;;;;;;5063779;28;20072;-71
2023/03/10 07:20:41;;;;;;;29.33;15.00;;;;;;;;;;5064108;28;20044;-71
2023/03/10 07:23:07;;;;;;;30.25;16.55;;;;;;;;;;5015996;28;20424;-71
2023/03/10 07:25:36;;;;;;;28.85;14.68;;;;;;;;;;5046410;28;20056;-70
2023/03/10 07:28:03;;;;;;;29.55;15.07;;;;;;;;;;5064267;28;20045;-71
2023/03/10 07:30:30;;;;;;;28.65;16.05;;;2.40;99.90;;;;;;5015872;28;20042;-71
2023/03/10 07:32:56;;;;;;;29.40;16.02;;;;;;;;;;5047115;28;20029;-71
2023/03/10 07:35:22;;;;;;;29.98;16.27;;;;;;;;;;5043226;28;20044;-72
2023/03/10 07:37:48;;;;;;;32.22;17.85;;;;;;;;;;5025404;28;20041;-71
2023/03/10 07:40:14;;;;;;;31.98;15.82;;;;;;;;;;5017197;28;20052;-71
2023/03/10 07:42:42;;;;;;;33.97;16.98;;;2.50;99.90;;;;;;5033613;28;20040;-72
2023/03/10 07:45:08;;;;;;;33.42;18.05;;;;;;;;;;5035638;28;20045;-72
2023/03/10 07:47:34;;;;;;;33.28;17.40;;;;;;;;;;5017144;28;20111;-71
2023/03/10 07:50:00;;;;;;;31.10;16.83;;;;;;;;;;5033893;28;20432;-71
2023/03/10 07:52:27;;;;;;;41.20;20.48;;;;;;;;;;5046636;28;20214;-73
2023/03/10 07:54:53;;;;;;;37.35;20.27;;;;;;;;;;5042743;28;20037;-70
2023/03/10 07:57:20;;;;;;;29.60;16.35;;;;;;;;;;5037041;28;20043;-74
2023/03/10 07:59:46;;;;;;;34.30;18.67;;;;;;;;;;5034056;28;20132;-70
2023/03/10 08:02:12;;;;;;;33.97;18.25;;;;;;;;;;5039445;28;20079;-71
2023/03/10 08:04:38;;;;;;;32.03;17.02;;;;;;;;;;5041914;28;20049;-71
2023/03/10 08:07:04;;;;;;;30.58;17.65;;;;;;;;;;5017931;28;20057;-72
2023/03/10 08:09:30;;;;;;;30.63;16.10;;;;;;;;;;5022135;28;20043;-73
2023/03/10 08:12:00;;;;;;;32.55;15.95;;;;;;;;;;5023816;28;20052;-73
2023/03/10 08:14:27;;;;;;;32.63;18.23;;;;;;;;;;5039814;28;20037;-70
2023/03/10 08:16:55;;;;;;;31.65;16.90;;;;;;;;;;5062069;28;20412;-69
2023/03/10 08:19:21;;;;;;;27.17;15.73;;;;;;;;;;5045838;28;20473;-72
2023/03/10 08:21:47;;;;;;;30.85;16.05;;;;;;;;;;5062505;28;20483;-73
2023/03/10 08:24:14;;;;;;;28.40;15.95;;;;;;;;;;5062525;28;20043;-71
2023/03/10 08:26:40;;;;;;;35.80;19.23;;;;;;;;;;5042459;28;20049;-70
2023/03/10 08:29:06;;;;;;;34.50;17.92;;;;;;;;;;5062874;28;20047;-70
2023/03/10 08:31:32;;;;;;;31.48;16.00;;;;;;;;;;5030508;28;20041;-72
2023/03/10 08:33:58;;;;;;;30.02;17.15;;;;;;;;;;5031224;28;20036;-70
2023/03/10 08:36:26;;;;;;;28.15;15.23;;;;;;;;;;5032332;28;20040;-70
2023/03/10 08:38:53;;;;;;;30.13;15.38;;;2.70;99.90;;;;;;5029484;28;20561;-70
2023/03/10 08:41:25;;;;;;;25.85;14.70;;;2.50;99.90;;;;;;5042830;28;20123;-69
2023/03/10 08:43:52;;;;;;;29.95;16.35;;;;;;;;;;5048732;28;20032;-69
2023/03/10 08:46:20;;;;;;;27.95;14.93;;;2.50;99.90;;;;;;5049508;28;20081;-70
2023/03/10 08:48:46;;;;;;;32.08;16.73;;;;;;;;;;5024132;28;20115;-70
2023/03/10 08:51:12;;;;;;;35.25;18.48;;;;;;;;;;5031807;28;20037;-70
2023/03/10 08:53:38;;;;;;;30.98;16.38;;;;;;;;;;5066292;28;20207;-69
2023/03/10 08:56:04;;;;;;;26.50;15.23;;;;;;;;;;5065373;28;20045;-69
2023/03/10 08:58:30;;;;;;;35.17;18.27;;;;;;;;;;5065082;28;20135;-70
2023/03/10 09:00:56;;;;;;;31.17;16.85;;;;;;;;;;5057998;28;20059;-69
2023/03/10 09:03:23;;;;;;;28.88;15.90;;;;;;;;;;5029546;28;20037;-69
2023/03/10 09:05:49;;;;;;;27.80;16.58;;;;;;;;;;5029808;28;20570;-70
2023/03/10 09:08:15;;;;;;;30.38;16.75;;;;;;;;;;5044710;28;20040;-69
2023/03/10 09:10:42;;;;;;;27.50;14.50;;;;;;;;;;5062384;28;20408;-69
2023/03/10 09:13:08;;;;;;;32.65;17.75;;;;;;;;;;5065218;28;20484;-70
2023/03/10 09:15:39;;;;;;;29.20;16.25;;;;;;;;;;5045135;28;20063;-69
2023/03/10 09:18:05;;;;;;;30.08;17.45;;;;;;;;;;5048986;28;20045;-70
2023/03/10 09:20:31;;;;;;;29.05;16.55;;;;;;;;;;5026817;28;20041;-69
2023/03/10 09:22:57;;;;;;;29.38;16.85;;;;;;;;;;5017937;28;20037;-70
2023/03/10 09:25:23;;;;;;;30.25;17.08;;;;;;;;;;5042966;28;20037;-69
2023/03/10 09:27:49;;;;;;;31.60;18.17;;;;;;;;;;5044625;28;20033;-69
2023/03/10 09:30:16;;;;;;;35.10;18.70;;;;;;;;;;5043596;28;20538;-71
2023/03/10 09:32:43;;;;;;;32.03;16.90;;;;;;;;;;5041325;28;20096;-70
2023/03/10 09:35:10;;;;;;;32.75;17.75;;;;;;;;;;5042721;28;20036;-71
2023/03/10 09:37:36;;;;;;;33.60;17.60;;;;;;;;;;5043639;28;20044;-71
2023/03/10 09:40:04;;;;;;;30.80;16.48;;;;;;;;;;5035782;28;20040;-70
2023/03/10 09:42:46;;;;;;;33.97;18.17;;;;;;;;;;5035941;28;20032;-70
2023/03/10 09:45:22;;;;;;;33.17;17.52;;;;;;;;;;5053072;28;20045;-70
2023/03/10 09:47:48;;;;;;;34.45;18.02;;;;;;;;;;5052499;28;20086;-70
2023/03/10 09:50:18;;;;;;;35.65;18.30;;;;;;;;;;5052653;28;20459;-70
2023/03/10 09:52:46;;;;;;;32.58;17.35;;;;;;;;;;5052673;28;20048;-70
2023/03/10 09:55:20;;;;;;;29.85;17.02;;;2.60;99.90;;;;;;5043663;28;20033;-72
2023/03/10 09:57:47;;;;;;;28.00;16.70;;;;;;;;;;5040889;28;20033;-70
2023/03/10 10:00:20;;;;;;;30.63;17.25;;;2.50;99.90;;;;;;5040427;28;20037;-71
2023/03/10 10:02:48;;;;;;;32.95;16.63;;;;;;;;;;5042902;28;20064;-71
2023/03/10 10:05:24;;;;;;;33.03;16.83;;;;;;;;;;5044314;28;20047;-75
2023/03/10 10:07:56;;;;;;;31.25;16.05;;;;;;;;;;5032419;28;20124;-71
2023/03/10 10:10:30;;;;;;;30.95;16.85;;;;;;;;;;5025080;28;20033;-70
2023/03/10 10:13:01;;;;;;;30.98;16.42;;;;;;;;;;5024332;28;20083;-70
2023/03/10 10:15:30;;;;;;;31.10;17.20;;;;;;;;;;5031268;28;20049;-70
2023/03/10 10:18:06;;;;;;;32.08;16.13;;;;;;;;;;5034686;28;20053;-69
2023/03/10 10:20:35;;;;;;;31.60;16.42;;;;;;;;;;5068599;28;20513;-70
2023/03/10 10:23:01;;;;;;;28.50;15.77;;;;;;;;;;5034907;28;20045;-67
2023/03/10 10:25:30;;;;;;;30.90;16.00;;;2.50;99.90;;;;;;5037721;28;20094;-70
2023/03/10 10:28:01;;;;;;;27.38;15.10;;;;;;;;;;5040707;28;20032;-70
2023/03/10 10:30:35;;;;;;;26.65;14.77;;;;;;;;;;5036926;28;20037;-70
2023/03/10 10:33:08;;;;;;;28.85;15.75;;;;;;;;;;5032125;28;20048;-69
2023/03/10 10:35:36;;;;;;;;;;;2.40;99.90;;;;;;5037358;28;20043;-70
2023/03/10 10:38:02;;;;;;;27.60;14.90;;;;;;;;;;5068438;28;19917;-73
2023/03/10 10:40:29;;;;;;;28.85;16.27;;;;;;;;;;5035291;28;20049;-70
2023/03/10 10:42:59;;;;;;;33.63;18.13;;;2.50;99.90;;;;;;5051325;28;20072;-71
2023/03/10 10:45:29;;;;;;;30.95;16.60;;;;;;;;;;5051660;28;20049;-71
2023/03/10 10:47:55;;;;;;;37.42;19.27;;;;;;;;;;5029177;28;20037;-72
2023/03/10 10:50:25;;;;;;;34.92;18.55;;;;;;;;;;5022714;28;20132;-71
2023/03/10 10:53:10;;;;;;;32.28;18.15;;;;;;;;;;5039253;28;20371;-71
2023/03/10 10:55:36;;;;;;;29.88;16.58;;;;;;;;;;5043154;28;20049;-70
2023/03/10 10:58:22;;;;;;;32.33;17.50;;;;;;;;;;5051170;28;20069;-71
2023/03/10 11:00:54;;;;;;;33.15;19.00;;;;;;;;;;5049683;28;20687;-68
2023/03/10 11:03:30;;;;;;;33.80;19.00;;;2.80;99.90;;;;;;5026943;28;20095;-70
2023/03/10 11:05:56;;;;;;;35.20;18.50;;;;;;;;;;5045470;28;20129;-71
2023/03/10 11:08:25;;;;;;;35.65;20.75;;;;;;;;;;5030066;28;20040;-71
2023/03/10 11:10:59;;;;;;;32.28;19.05;;;;;;;;;;5030502;28;20099;-71
2023/03/10 11:13:31;;;;;;;38.83;21.20;;;;;;;;;;5030464;28;20508;-72
2023/03/10 11:16:02;;;;;;;33.30;17.45;;;;;;;;;;5030939;28;20071;-70
2023/03/10 11:18:31;;;;;;;36.30;18.55;;;;;;;;;;5031310;28;20464;-72
2023/03/10 11:21:08;;;;;;;28.88;17.20;;;2.60;99.90;;;;;;5031400;28;20065;-71
2023/03/10 11:23:41;;;;;;;29.77;16.33;;;;;;;;;;5015029;28;20045;-71
2023/03/10 11:26:26;;;;;;;35.08;17.52;;;;;;;;;;5030941;28;20081;-70
2023/03/10 11:28:58;;;;;;;33.65;19.10;;;;;;;;;;5031483;28;20171;-71
2023/03/10 11:31:30;;;;;;;32.05;17.42;;;;;;;;;;5031242;28;20648;-72
2023/03/10 11:34:07;;;;;;;35.20;17.58;;;3.10;99.90;;;;;;5031222;28;20059;-72
2023/03/10 11:36:52;;;;;;;37.85;17.67;;;;;;;;;;5047781;28;20056;-70
2023/03/10 11:39:21;;;;;;;33.53;18.48;;;;;;;;;;5030660;28;20048;-70
2023/03/10 11:41:49;;;;;;;34.55;19.05;;;;;;;;;;5031221;28;20136;-71
2023/03/10 11:45:01;;;;;;;35.17;18.90;;;3.10;99.90;;;;;;5031143;28;20092;-72
2023/03/10 11:47:43;;;;;;;37.47;19.92;;;;;;;;;;4973909;28;20137;-71
2023/03/10 11:50:15;;;;;;;33.75;17.92;;;;;;;;;;5024930;28;20115;-70
2023/03/10 11:52:41;;;;;;;31.27;16.88;;;;;;;;;;5030813;28;20099;-71
2023/03/10 11:55:18;;;;;;;30.95;18.83;;;2.90;99.90;;;;;;5030582;28;20049;-71
2023/03/10 11:57:48;;;;;;;33.20;19.10;;;3.30;99.90;;;;;;5030425;28;20048;-71
2023/03/10 12:00:30;;;;;;;35.03;18.85;;;3.20;99.90;;;;;;5047427;28;20049;-71
2023/03/10 12:03:37;;;;;;;35.78;18.63;;;3.10;99.90;;;;;;5047273;28;20045;-71
2023/03/10 12:06:05;;;;;;;33.85;19.33;;;;;;;;;;4973771;28;20038;-72
2023/03/10 12:08:33;;;;;;;35.33;19.60;;;3.20;99.90;;;;;;4957698;28;20046;-71
2023/03/10 12:11:00;;;;;;;35.80;21.10;;;;;;;;;;5001782;28;20049;-71
2023/03/10 12:13:34;;;;;;;43.10;22.90;;;;;;;;;;5030085;28;20045;-71
2023/03/10 12:16:00;;;;;;;37.83;20.38;;;;;;;;;;5030435;28;20053;-70
2023/03/10 12:18:27;;;;;;;38.63;19.77;;;;;;;;;;5030596;28;20393;-70
2023/03/10 12:21:19;;;;;;;37.03;19.55;;;3.00;99.90;;;;;;5030129;28;20045;-72
2023/03/10 12:23:50;;;;;;;36.25;19.65;;;;;;;;;;5046832;28;20041;-71
2023/03/10 12:26:38;;;;;;;37.25;20.02;;;3.20;99.90;;;;;;5031516;28;20041;-70
2023/03/10 12:29:16;;;;;;;34.40;19.30;;;;;;;;;;5013512;28;20049;-70
2023/03/10 12:31:47;;;;;;;35.80;20.00;;;3.10;99.90;;;;;;5030223;28;20037;-70
2023/03/10 12:34:18;;;;;;;35.50;19.60;;;3.10;99.90;;;;;;5046719;28;20124;-72
2023/03/10 12:36:46;;;;;;;37.58;20.00;;;;;;;;;;5046712;28;20041;-70
2023/03/10 12:39:26;;;;;;;41.58;21.33;;;2.90;99.90;;;;;;5033562;28;20048;-72
2023/03/10 12:41:52;;;;;;;35.60;20.75;;;;;;;;;;5050204;28;20527;-70
2023/03/10 12:44:22;;;;;;;32.88;19.23;;;;;;;;;;5034004;28;20111;-70
2023/03/10 12:47:06;;;;;;;37.22;19.92;;;;;;;;;;5030355;28;20052;-71
2023/03/10 12:49:41;;;;;;;34.65;19.17;;;;;;;;;;5030144;28;20037;-71
2023/03/10 12:52:17;;;;;;;37.45;20.42;;;;;;;;;;5029765;28;20080;-71
2023/03/10 12:55:01;;;;;;;34.17;18.20;;;;;;;;;;5029980;28;20068;-72
2023/03/10 12:57:31;;;;;;;37.20;20.15;;;;;;;;;;5031197;28;20080;-72
2023/03/10 13:00:05;;;;;;;35.63;18.65;;;3.10;99.90;;;;;;5033824;28;20075;-72
2023/03/10 13:02:48;;;;;;;31.77;18.30;;;;;;;;;;5034857;28;20046;-73
2023/03/10 13:05:24;;;;;;;35.00;19.20;;;;;;;;;;5033985;28;20519;-72
2023/03/10 13:07:55;;;;;;;35.65;18.90;;;2.80;99.90;;;;;;5033581;28;20049;-72
2023/03/10 13:10:23;;;;;;;37.33;19.75;;;;;;;;;;5033600;28;20481;-72
2023/03/10 13:12:53;;;;;;;40.42;20.40;;;3.00;99.90;;;;;;5033617;28;20573;-72
2023/03/10 13:15:21;;;;;;;38.15;19.27;;;;;;;;;;5050258;28;20124;-73
2023/03/10 13:17:47;;;;;;;32.88;18.17;;;;;;;;;;5033609;28;20076;-72
2023/03/10 13:20:16;;;;;;;44.30;20.17;;;3.20;99.90;;;;;;5033551;28;20042;-72
2023/03/10 13:22:52;;;;;;;34.78;17.67;;;;;;;;;;5049810;28;20077;-72
2023/03/10 13:25:18;;;;;;;37.25;19.70;;;;;;;;;;5033636;28;20501;-72
2023/03/10 13:27:44;;;;;;;41.33;22.30;;;;;;;;;;5033010;28;20084;-71
2023/03/10 13:30:13;;;;;;;39.22;20.70;;;;;;;;;;5033312;28;20435;-72
2023/03/10 13:32:39;;;;;;;36.20;18.00;;;;;;;;;;5033225;28;20037;-72
2023/03/10 13:35:12;;;;;;;31.88;16.98;;;;;;;;;;5033215;28;20045;-72
2023/03/10 13:37:37;;;;;;;29.92;15.65;;;2.90;99.90;;;;;;5033183;28;20037;-72
2023/03/10 13:40:09;;;;;;;30.98;15.02;;;2.80;99.90;;;;;;5049751;28;20393;-72
2023/03/10 13:42:35;;;;;;;28.05;13.63;;;;;;;;;;5049920;28;20120;-73
2023/03/10 13:45:11;;;;;;;30.52;15.18;;;2.70;99.90;;;;;;5033009;28;20099;-72
2023/03/10 13:47:39;;;;;;;38.97;17.13;;;;;;;;;;5049850;28;20076;-72
2023/03/10 13:50:09;;;;;;;32.35;15.63;;;;;;;;;;5032833;28;20124;-72
2023/03/10 13:52:35;;;;;;;27.15;13.25;;;;;;;;;;5033148;28;20123;-72
2023/03/10 13:55:14;;;;;;;29.70;15.00;;;;;;;;;;5033060;28;20438;-73
2023/03/10 13:57:41;;;;;;;32.65;14.65;;;;;;;;;;5032959;28;20037;-73